Time;durP1;ratioP1;P1;durP2;ratioP2;P2;SDS_P1;SDS_P2;PMS_P1;PMS_P2;Temp;Humidity;BMP_temperature;BMP_pressure;BME280_temperature;BME280_humidity;BME280_pressure;Samples;Min_cycle;Max_cycle;Signal;HPM_P1;HPM_P2
2022/07/17 00:00:56;;;;;;;0.20;0.10;;;16.00;99.90;;;;;;5009809;28;20034;-65
2022/07/17 00:03:23;;;;;;;0.10;0.10;;;16.00;99.90;;;;;;5008759;28;20042;-65
2022/07/17 00:05:51;;;;;;;0.22;0.20;;;16.00;99.90;;;;;;5004270;28;20040;-66
2022/07/17 00:08:18;;;;;;;0.43;0.10;;;16.00;99.90;;;;;;5006807;28;20054;-66
2022/07/17 00:10:45;;;;;;;0.20;0.20;;;16.00;99.90;;;;;;5016481;28;20030;-64
2022/07/17 00:13:12;;;;;;;0.22;0.22;;;16.00;99.90;;;;;;5003790;28;20042;-65
2022/07/17 00:15:39;;;;;;;0.77;0.30;;;16.00;99.90;;;;;;5008382;28;20117;-68
2022/07/17 00:18:07;;;;;;;0.80;0.20;;;16.00;99.90;;;;;;5008573;28;20080;-64
2022/07/17 00:20:34;;;;;;;0.25;0.17;;;16.00;99.90;;;;;;5009765;28;20046;-66
2022/07/17 00:23:01;;;;;;;0.40;0.40;;;16.00;99.90;;;;;;5008254;28;20107;-68
2022/07/17 00:25:29;;;;;;;1.38;0.40;;;16.00;99.90;;;;;;5006477;28;20045;-68
2022/07/17 00:27:56;;;;;;;0.10;0.10;;;16.00;99.90;;;;;;5005811;28;20033;-66
2022/07/17 00:30:23;;;;;;;0.30;0.20;;;16.00;99.90;;;;;;5007881;28;20068;-68
2022/07/17 00:32:50;;;;;;;2.15;0.40;;;16.00;99.90;;;;;;5007258;28;20361;-65
2022/07/17 00:35:17;;;;;;;0.90;0.10;;;16.00;99.90;;;;;;5001581;28;20100;-65
2022/07/17 00:37:47;;;;;;;1.05;0.20;;;16.00;99.90;;;;;;5006568;28;20070;-65
2022/07/17 00:40:20;;;;;;;1.30;1.20;;;16.00;99.90;;;;;;5005109;28;20038;-65
2022/07/17 00:42:47;;;;;;;0.63;0.20;;;16.00;99.90;;;;;;5000331;28;20098;-67
2022/07/17 00:45:14;;;;;;;0.28;0.20;;;16.00;99.90;;;;;;5003847;28;20038;-65
2022/07/17 00:47:55;;;;;;;1.60;0.30;;;16.00;99.90;;;;;;5008988;28;20120;-65
2022/07/17 00:50:23;;;;;;;;;;;16.00;99.90;;;;;;5007304;28;20052;-65
2022/07/17 00:52:50;;;;;;;0.47;0.20;;;16.00;99.90;;;;;;5007846;28;19987;-66
2022/07/17 00:55:18;;;;;;;0.57;0.10;;;16.00;99.90;;;;;;5005868;28;20046;-64
2022/07/17 00:58:06;;;;;;;0.10;0.10;;;16.00;99.90;;;;;;5006136;28;20042;-65
2022/07/17 01:00:33;;;;;;;1.02;0.50;;;16.00;99.90;;;;;;5009559;28;20060;-67
2022/07/17 01:03:00;;;;;;;1.65;0.40;;;16.00;99.90;;;;;;5008237;28;20032;-65
2022/07/17 01:05:27;;;;;;;0.20;0.10;;;15.90;99.90;;;;;;5009633;28;20112;-65
2022/07/17 01:07:54;;;;;;;0.25;0.20;;;15.90;99.90;;;;;;5002826;28;20042;-70
2022/07/17 01:10:21;;;;;;;0.38;0.20;;;15.90;99.90;;;;;;5006199;28;20137;-65
2022/07/17 01:12:48;;;;;;;5.68;0.50;;;15.90;99.90;;;;;;5004692;28;20139;-69
2022/07/17 01:15:16;;;;;;;0.22;0.20;;;15.90;99.90;;;;;;5008837;28;20419;-66
2022/07/17 01:17:44;;;;;;;0.75;0.20;;;15.90;99.90;;;;;;5007276;28;20057;-65
2022/07/17 01:20:11;;;;;;;2.15;0.30;;;15.90;99.90;;;;;;5002805;28;20077;-65
2022/07/17 01:22:50;;;;;;;0.82;0.50;;;15.80;99.90;;;;;;5008465;28;20096;-70
2022/07/17 01:25:21;;;;;;;1.42;1.33;;;15.80;99.90;;;;;;5005497;28;20046;-65
2022/07/17 01:27:48;;;;;;;0.50;0.50;;;15.80;99.90;;;;;;5005336;28;20148;-67
2022/07/17 01:30:16;;;;;;;2.55;1.27;;;15.80;99.90;;;;;;5003061;28;20042;-64
2022/07/17 01:32:43;;;;;;;1.35;0.65;;;15.80;99.90;;;;;;5008074;28;20396;-64
2022/07/17 01:35:12;;;;;;;0.60;0.30;;;15.80;99.90;;;;;;5007836;28;20050;-65
2022/07/17 01:37:41;;;;;;;0.80;0.40;;;15.80;99.90;;;;;;5008652;28;20046;-70
2022/07/17 01:40:12;;;;;;;0.65;0.28;;;15.80;99.90;;;;;;5006819;28;20046;-68
2022/07/17 01:42:43;;;;;;;1.05;0.20;;;15.80;99.90;;;;;;5005744;28;20424;-67
2022/07/17 01:45:10;;;;;;;0.93;0.75;;;15.80;99.90;;;;;;5006838;28;20042;-66
2022/07/17 01:47:38;;;;;;;1.33;0.25;;;15.80;99.90;;;;;;5006236;28;20069;-66
2022/07/17 01:50:06;;;;;;;0.80;0.20;;;15.80;99.90;;;;;;5004188;28;20033;-65
2022/07/17 01:52:37;;;;;;;0.22;0.20;;;15.80;99.90;;;;;;5006307;28;20050;-67
2022/07/17 01:55:08;;;;;;;;;;;15.80;99.90;;;;;;5008495;28;20447;-68
2022/07/17 01:57:35;;;;;;;0.82;0.75;;;15.80;99.90;;;;;;5009262;28;20016;-65
2022/07/17 02:00:05;;;;;;;0.43;0.10;;;15.80;99.90;;;;;;5010022;28;20578;-65
2022/07/17 02:02:33;;;;;;;1.05;0.32;;;15.80;99.90;;;;;;5008661;28;20108;-68
2022/07/17 02:05:00;;;;;;;0.50;0.50;;;15.80;99.90;;;;;;5010953;28;20038;-64
2022/07/17 02:07:27;;;;;;;0.73;0.22;;;15.80;99.90;;;;;;5005291;28;20038;-66
2022/07/17 02:09:54;;;;;;;1.08;0.40;;;15.80;99.90;;;;;;5007178;28;20073;-64
2022/07/17 02:12:21;;;;;;;0.85;0.15;;;15.80;99.90;;;;;;5004270;28;20124;-64
2022/07/17 02:14:48;;;;;;;1.13;0.20;;;15.80;99.90;;;;;;5001140;28;20436;-68
2022/07/17 02:17:14;;;;;;;1.58;0.25;;;15.80;99.90;;;;;;5004538;28;20094;-64
2022/07/17 02:19:41;;;;;;;0.40;0.30;;;15.70;99.90;;;;;;5004777;28;20120;-65
2022/07/17 02:22:08;;;;;;;0.30;0.30;;;15.80;99.90;;;;;;5008740;28;20099;-68
2022/07/17 02:24:35;;;;;;;0.57;0.15;;;15.80;99.90;;;;;;5004932;28;20038;-66
2022/07/17 02:27:02;;;;;;;1.35;0.32;;;15.80;99.90;;;;;;5008239;28;20049;-64
2022/07/17 02:29:29;;;;;;;0.25;0.10;;;15.80;99.90;;;;;;5008682;28;20430;-67
2022/07/17 02:31:56;;;;;;;0.52;0.30;;;15.80;99.90;;;;;;5010931;28;20041;-65
2022/07/17 02:34:23;;;;;;;0.10;0.10;;;15.80;99.90;;;;;;5009847;28;20065;-66
2022/07/17 02:36:50;;;;;;;1.20;0.20;;;15.80;99.90;;;;;;5009626;28;20050;-66
2022/07/17 02:39:17;;;;;;;0.22;0.20;;;15.80;99.90;;;;;;5001363;28;20042;-65
2022/07/17 02:41:44;;;;;;;0.50;0.30;;;15.80;99.90;;;;;;5008069;28;20193;-66
2022/07/17 02:44:10;;;;;;;0.10;0.10;;;15.70;99.90;;;;;;5001153;28;20069;-67
2022/07/17 02:46:37;;;;;;;0.32;0.32;;;15.70;99.90;;;;;;5004969;28;20045;-65
2022/07/17 02:49:04;;;;;;;3.95;0.40;;;15.70;99.90;;;;;;5009332;28;20034;-65
2022/07/17 02:51:31;;;;;;;0.32;0.25;;;15.70;99.90;;;;;;5007880;28;20150;-66
2022/07/17 02:53:58;;;;;;;0.32;0.20;;;15.70;99.90;;;;;;5006365;28;20073;-65
2022/07/17 02:56:25;;;;;;;0.45;0.28;;;15.80;99.90;;;;;;5008693;28;20125;-64
2022/07/17 02:58:52;;;;;;;0.90;0.28;;;15.80;99.90;;;;;;5007107;28;20125;-68
2022/07/17 03:01:19;;;;;;;0.70;0.20;;;15.80;99.90;;;;;;5008080;28;20488;-67
2022/07/17 03:03:46;;;;;;;0.47;0.40;;;15.80;99.90;;;;;;5005916;28;20046;-65
2022/07/17 03:06:13;;;;;;;0.20;0.15;;;15.80;99.90;;;;;;5009358;28;20826;-65
2022/07/17 03:08:40;;;;;;;1.98;0.68;;;15.80;99.90;;;;;;5010723;28;20078;-65
2022/07/17 03:11:07;;;;;;;0.80;0.32;;;15.80;99.90;;;;;;5008266;28;20603;-69
2022/07/17 03:13:34;;;;;;;0.40;0.20;;;15.80;99.90;;;;;;5002896;28;20102;-66
2022/07/17 03:16:01;;;;;;;0.20;0.20;;;15.80;99.90;;;;;;5006833;28;20041;-66
2022/07/17 03:18:27;;;;;;;0.30;0.30;;;15.80;99.90;;;;;;5007563;28;20718;-66
2022/07/17 03:20:54;;;;;;;0.50;0.20;;;15.80;99.90;;;;;;5001717;28;20071;-66
2022/07/17 03:23:21;;;;;;;1.08;0.20;;;15.80;99.90;;;;;;5008585;28;20049;-66
2022/07/17 03:25:48;;;;;;;0.55;0.50;;;15.80;99.90;;;;;;5008141;28;20057;-68
2022/07/17 03:28:15;;;;;;;0.10;0.10;;;15.80;99.90;;;;;;5004380;28;20527;-65
2022/07/17 03:30:42;;;;;;;0.43;0.30;;;15.80;99.90;;;;;;5009919;28;20104;-65
2022/07/17 03:33:09;;;;;;;0.75;0.30;;;15.80;99.90;;;;;;5005339;28;20092;-66
2022/07/17 03:35:36;;;;;;;0.47;0.25;;;15.80;99.90;;;;;;5008526;28;20069;-65
2022/07/17 03:38:03;;;;;;;0.93;0.38;;;15.90;99.90;;;;;;5007572;28;20136;-67
2022/07/17 03:40:30;;;;;;;0.30;0.20;;;15.90;99.90;;;;;;5003670;28;20107;-65
2022/07/17 03:42:57;;;;;;;0.25;0.20;;;16.00;99.90;;;;;;5005395;28;20034;-65
2022/07/17 03:45:24;;;;;;;0.25;0.25;;;16.00;99.90;;;;;;5008566;28;20057;-65
2022/07/17 03:47:50;;;;;;;0.20;0.10;;;16.00;99.90;;;;;;5001924;28;20507;-66
2022/07/17 03:50:17;;;;;;;0.28;0.20;;;16.10;99.90;;;;;;5005954;28;20128;-65
2022/07/17 03:52:44;;;;;;;0.38;0.25;;;16.10;99.90;;;;;;5006595;28;20100;-66
2022/07/17 03:55:11;;;;;;;1.13;0.80;;;16.20;99.90;;;;;;5008348;28;20069;-68
2022/07/17 03:57:38;;;;;;;0.75;0.28;;;16.20;99.90;;;;;;5006525;28;20057;-67
2022/07/17 04:00:06;;;;;;;0.17;0.10;;;16.30;99.90;;;;;;5007642;28;20087;-64
2022/07/17 04:02:39;;;;;;;0.43;0.25;;;16.30;99.90;;;;;;5001503;28;20054;-68
2022/07/17 04:05:09;;;;;;;0.40;0.20;;;16.20;99.90;;;;;;5009381;28;20084;-65
2022/07/17 04:07:41;;;;;;;0.35;0.20;;;16.20;99.90;;;;;;5005993;28;20360;-65
2022/07/17 04:10:10;;;;;;;0.43;0.20;;;16.20;99.90;;;;;;5002070;28;20062;-64
2022/07/17 04:12:37;;;;;;;2.13;0.38;;;16.10;99.90;;;;;;5004445;28;20231;-66
2022/07/17 04:15:05;;;;;;;0.15;0.13;;;16.10;99.90;;;;;;5004715;28;20042;-64
2022/07/17 04:17:32;;;;;;;0.20;0.20;;;16.00;99.90;;;;;;5006055;28;20042;-64
2022/07/17 04:20:00;;;;;;;0.50;0.40;;;16.00;99.90;;;;;;5003482;28;20050;-66
2022/07/17 04:22:27;;;;;;;1.73;0.40;;;16.00;99.90;;;;;;5003759;28;20042;-65
2022/07/17 04:24:54;;;;;;;1.60;0.32;;;15.90;99.90;;;;;;5001320;28;20831;-65
2022/07/17 04:27:21;;;;;;;0.50;0.35;;;15.90;99.90;;;;;;5005302;28;20053;-66
2022/07/17 04:29:48;;;;;;;0.60;0.50;;;15.90;99.90;;;;;;4999231;28;20507;-67
2022/07/17 04:32:15;;;;;;;0.20;0.20;;;15.90;99.90;;;;;;5005343;28;20076;-65
2022/07/17 04:34:42;;;;;;;0.77;0.77;;;15.90;99.90;;;;;;5004063;28;20132;-65
2022/07/17 04:37:09;;;;;;;1.25;0.30;;;15.90;99.90;;;;;;5002935;28;20058;-68
2022/07/17 04:39:36;;;;;;;0.60;0.25;;;15.90;99.90;;;;;;4995204;28;20088;-64
2022/07/17 04:42:03;;;;;;;0.40;0.30;;;16.00;99.90;;;;;;4998653;28;20527;-65
2022/07/17 04:44:30;;;;;;;0.28;0.20;;;16.00;99.90;;;;;;4999004;28;20111;-65
2022/07/17 04:46:58;;;;;;;0.30;0.30;;;16.10;99.90;;;;;;5002098;28;20064;-64
2022/07/17 04:49:25;;;;;;;0.40;0.40;;;16.10;99.90;;;;;;4998334;28;20038;-65
2022/07/17 04:51:52;;;;;;;0.80;0.30;;;16.10;99.90;;;;;;5000329;28;20111;-64
2022/07/17 04:54:20;;;;;;;1.52;0.20;;;16.00;99.90;;;;;;4999211;28;20052;-67
2022/07/17 04:56:47;;;;;;;0.65;0.32;;;16.00;99.90;;;;;;5000851;28;20065;-67
2022/07/17 04:59:14;;;;;;;0.40;0.20;;;16.00;99.90;;;;;;5001917;28;20080;-66
2022/07/17 05:01:41;;;;;;;0.50;0.50;;;16.00;99.90;;;;;;4999979;28;20038;-65
2022/07/17 05:04:08;;;;;;;2.55;0.40;;;16.00;99.90;;;;;;5000463;28;20058;-66
2022/07/17 05:06:34;;;;;;;1.83;0.55;;;16.10;99.90;;;;;;4994907;28;20038;-68
2022/07/17 05:09:02;;;;;;;0.25;0.25;;;16.10;99.90;;;;;;4999624;28;20046;-65
2022/07/17 05:11:28;;;;;;;0.30;0.20;;;16.20;99.90;;;;;;4997953;28;20083;-67
2022/07/17 05:13:56;;;;;;;0.30;0.30;;;16.20;99.90;;;;;;5002635;28;20528;-67
2022/07/17 05:16:23;;;;;;;0.73;0.22;;;16.30;99.90;;;;;;4999685;28;20044;-65
2022/07/17 05:18:50;;;;;;;0.30;0.30;;;16.30;99.90;;;;;;5001469;28;20429;-65
2022/07/17 05:21:17;;;;;;;0.90;0.25;;;16.40;99.90;;;;;;5001110;28;20041;-64
2022/07/17 05:23:44;;;;;;;0.50;0.20;;;16.40;99.90;;;;;;4998974;28;20039;-65
2022/07/17 05:26:11;;;;;;;0.30;0.20;;;16.50;99.90;;;;;;4996167;28;20053;-65
2022/07/17 05:28:38;;;;;;;0.90;0.40;;;16.60;99.90;;;;;;5002583;28;20038;-64
2022/07/17 05:31:05;;;;;;;1.38;0.55;;;16.60;99.90;;;;;;5006880;28;20141;-69
2022/07/17 05:33:33;;;;;;;0.88;0.30;;;16.60;99.90;;;;;;5002321;28;20435;-65
2022/07/17 05:36:00;;;;;;;0.30;0.22;;;16.60;99.90;;;;;;5004387;28;20124;-66
2022/07/17 05:38:27;;;;;;;0.93;0.70;;;16.60;99.90;;;;;;5003600;28;20037;-67
2022/07/17 05:40:54;;;;;;;1.85;0.35;;;16.60;99.90;;;;;;5000002;28;20454;-65
2022/07/17 05:43:21;;;;;;;0.95;0.32;;;16.60;99.90;;;;;;5005154;28;20487;-65
2022/07/17 05:45:48;;;;;;;1.10;0.40;;;16.70;99.90;;;;;;5006530;28;20050;-67
2022/07/17 05:48:15;;;;;;;1.02;0.40;;;16.70;99.90;;;;;;5004688;28;20538;-65
2022/07/17 05:50:42;;;;;;;0.88;0.57;;;16.70;99.90;;;;;;5005589;28;20920;-64
2022/07/17 05:53:09;;;;;;;0.40;0.40;;;16.70;99.90;;;;;;5009814;28;20103;-66
2022/07/17 05:55:36;;;;;;;1.02;0.73;;;16.70;99.90;;;;;;5012026;28;20041;-65
2022/07/17 05:58:03;;;;;;;1.33;0.90;;;16.80;99.90;;;;;;5009481;28;20038;-64
2022/07/17 06:00:30;;;;;;;0.52;0.40;;;16.80;99.90;;;;;;5008349;28;20099;-66
2022/07/17 06:02:57;;;;;;;0.30;0.25;;;16.70;99.90;;;;;;5012562;28;20125;-65
2022/07/17 06:05:26;;;;;;;0.77;0.30;;;16.80;99.90;;;;;;5006157;28;20135;-65
2022/07/17 06:07:54;;;;;;;0.52;0.40;;;16.80;99.90;;;;;;5012209;28;20120;-64
2022/07/17 06:10:21;;;;;;;0.70;0.50;;;16.80;99.90;;;;;;5004702;28;20050;-64
2022/07/17 06:12:49;;;;;;;1.60;1.25;;;16.80;99.90;;;;;;5009889;28;20065;-66
2022/07/17 06:15:16;;;;;;;0.43;0.38;;;16.90;99.90;;;;;;5008274;28;20053;-66
2022/07/17 06:17:43;;;;;;;0.60;0.47;;;16.90;99.90;;;;;;5012293;28;20041;-65
2022/07/17 06:20:11;;;;;;;0.57;0.40;;;16.90;99.90;;;;;;5011100;28;20096;-65
2022/07/17 06:22:39;;;;;;;1.00;0.65;;;17.00;99.90;;;;;;5012645;28;20178;-66
2022/07/17 06:25:07;;;;;;;0.63;0.30;;;17.00;99.90;;;;;;5010847;28;20038;-65
2022/07/17 06:27:35;;;;;;;1.27;0.45;;;17.00;99.90;;;;;;5010011;28;20073;-65
2022/07/17 06:30:02;;;;;;;0.75;0.32;;;17.10;99.90;;;;;;5008083;28;20065;-65
2022/07/17 06:32:29;;;;;;;0.75;0.63;;;17.10;99.90;;;;;;5005647;28;20423;-67
2022/07/17 06:34:55;;;;;;;0.40;0.40;;;17.10;99.90;;;;;;5004676;28;20399;-65
2022/07/17 06:37:22;;;;;;;1.63;0.55;;;17.20;99.90;;;;;;5005546;28;20073;-65
2022/07/17 06:39:49;;;;;;;0.35;0.25;;;17.20;99.90;;;;;;4998586;28;20042;-65
2022/07/17 06:42:16;;;;;;;0.70;0.60;;;17.10;99.90;;;;;;4999646;28;20034;-64
2022/07/17 06:44:43;;;;;;;0.90;0.70;;;17.10;99.90;;;;;;4999803;28;20531;-66
2022/07/17 06:47:10;;;;;;;0.68;0.50;;;17.10;99.90;;;;;;5008214;28;20101;-65
2022/07/17 06:49:37;;;;;;;0.50;0.40;;;17.10;99.90;;;;;;5010521;28;20034;-68
2022/07/17 06:52:04;;;;;;;3.25;0.60;;;17.10;99.90;;;;;;5003662;28;20096;-68
2022/07/17 06:54:31;;;;;;;1.13;0.50;;;17.20;99.90;;;;;;5005652;28;20042;-65
2022/07/17 06:56:58;;;;;;;0.90;0.55;;;17.20;99.90;;;;;;5006346;28;20046;-65
2022/07/17 06:59:25;;;;;;;1.02;0.70;;;17.20;99.90;;;;;;5007529;28;20143;-66
2022/07/17 07:01:52;;;;;;;0.75;0.52;;;17.20;99.90;;;;;;5003920;28;20614;-66
2022/07/17 07:04:19;;;;;;;0.50;0.50;;;17.30;99.90;;;;;;4998742;28;20046;-65
2022/07/17 07:06:46;;;;;;;2.35;0.80;;;17.20;99.90;;;;;;4997742;28;20069;-68
2022/07/17 07:09:13;;;;;;;0.77;0.40;;;17.30;99.90;;;;;;5001231;28;20391;-64
2022/07/17 07:11:43;;;;;;;0.55;0.30;;;17.30;99.90;;;;;;5005474;28;20030;-70
2022/07/17 07:14:10;;;;;;;0.40;0.32;;;17.40;99.90;;;;;;5002553;28;20050;-70
2022/07/17 07:16:37;;;;;;;0.32;0.32;;;17.50;99.90;;;;;;4997507;28;21307;-67
2022/07/17 07:19:04;;;;;;;0.90;0.30;;;17.40;99.90;;;;;;4996762;28;20480;-66
2022/07/17 07:21:31;;;;;;;0.68;0.55;;;17.50;99.90;;;;;;4998041;28;20469;-65
2022/07/17 07:23:58;;;;;;;1.35;0.20;;;17.50;99.90;;;;;;5003553;28;20108;-65
2022/07/17 07:26:25;;;;;;;0.20;0.20;;;17.50;99.90;;;;;;5003108;28;20038;-64
2022/07/17 07:28:52;;;;;;;0.50;0.30;;;17.40;99.90;;;;;;4996324;28;20066;-68
2022/07/17 07:31:19;;;;;;;1.10;0.45;;;17.40;99.90;;;;;;5001397;28;20046;-65
2022/07/17 07:33:46;;;;;;;1.20;0.20;;;17.40;99.90;;;;;;5000362;28;20454;-65
2022/07/17 07:36:13;;;;;;;0.32;0.32;;;17.30;99.90;;;;;;4996628;28;20105;-64
2022/07/17 07:38:41;;;;;;;1.63;0.70;;;17.40;99.90;;;;;;4995450;28;20113;-66
2022/07/17 07:41:08;;;;;;;1.45;0.20;;;17.50;99.90;;;;;;5005707;28;20080;-67
2022/07/17 07:43:35;;;;;;;0.30;0.30;;;17.50;99.90;;;;;;5005016;28;20104;-65
2022/07/17 07:46:03;;;;;;;0.43;0.35;;;17.60;99.90;;;;;;5000105;28;20049;-64
2022/07/17 07:48:30;;;;;;;0.50;0.40;;;17.70;99.90;;;;;;5004943;28;20041;-66
2022/07/17 07:50:57;;;;;;;0.50;0.40;;;17.60;99.90;;;;;;5003509;28;20085;-65
2022/07/17 07:53:24;;;;;;;0.35;0.35;;;17.50;99.90;;;;;;5002201;28;20061;-66
2022/07/17 07:55:51;;;;;;;1.17;0.43;;;17.40;99.90;;;;;;5004779;28;20453;-65
2022/07/17 07:58:19;;;;;;;0.63;0.52;;;17.50;99.90;;;;;;5005813;28;20106;-66
2022/07/17 08:00:46;;;;;;;5.63;1.92;;;17.50;99.90;;;;;;5005726;28;20400;-65
2022/07/17 08:03:14;;;;;;;0.43;0.43;;;17.50;99.90;;;;;;5006643;28;20038;-64
2022/07/17 08:05:41;;;;;;;0.82;0.82;;;17.60;99.90;;;;;;5008744;28;20045;-65
2022/07/17 08:08:08;;;;;;;0.60;0.60;;;17.70;99.90;;;;;;5009174;28;20053;-64
2022/07/17 08:10:35;;;;;;;0.50;0.43;;;17.80;99.90;;;;;;5003899;28;20086;-64
2022/07/17 08:13:03;;;;;;;0.50;0.47;;;18.00;99.90;;;;;;5006334;28;20493;-66
2022/07/17 08:15:30;;;;;;;1.17;0.35;;;18.10;99.90;;;;;;4999074;28;20080;-71
2022/07/17 08:17:57;;;;;;;0.40;0.40;;;18.10;99.90;;;;;;5008118;28;20124;-65
2022/07/17 08:20:24;;;;;;;1.23;0.60;;;18.10;99.90;;;;;;5006812;28;20054;-69
2022/07/17 08:22:51;;;;;;;0.32;0.30;;;18.10;99.90;;;;;;5006785;28;20196;-64
2022/07/17 08:25:34;;;;;;;1.02;0.43;;;18.00;99.90;;;;;;5009962;28;20708;-65
2022/07/17 08:28:04;;;;;;;0.38;0.30;;;18.10;99.90;;;;;;5005322;28;20145;-66
2022/07/17 08:30:34;;;;;;;0.90;0.50;;;18.20;99.90;;;;;;5000828;28;20033;-68
2022/07/17 08:33:04;;;;;;;0.90;0.50;;;18.10;99.90;;;;;;5007591;28;20432;-65
2022/07/17 08:35:31;;;;;;;2.85;0.50;;;18.20;99.90;;;;;;5009176;28;20096;-70
2022/07/17 08:38:01;;;;;;;0.50;0.50;;;18.10;99.90;;;;;;5007757;28;20372;-68
2022/07/17 08:40:32;;;;;;;;;;;18.10;99.90;;;;;;5009526;28;20069;-71
2022/07/17 08:43:02;;;;;;;0.20;0.20;;;18.10;99.90;;;;;;4996983;28;19936;-66
2022/07/17 08:45:29;;;;;;;0.40;0.40;;;18.20;99.90;;;;;;5002613;28;20039;-65
2022/07/17 08:47:57;;;;;;;0.40;0.40;;;18.20;99.90;;;;;;5006165;28;20394;-66
2022/07/17 08:50:33;;;;;;;3.03;1.02;;;18.30;99.90;;;;;;5008435;28;20116;-69
2022/07/17 08:53:01;;;;;;;0.80;0.60;;;18.50;99.90;;;;;;5006739;28;20092;-71
2022/07/17 08:55:29;;;;;;;0.20;0.20;;;18.50;99.90;;;;;;5005580;28;20044;-65
2022/07/17 08:57:56;;;;;;;0.32;0.20;;;18.60;99.90;;;;;;5006195;28;20084;-65
2022/07/17 09:00:25;;;;;;;0.55;0.30;;;18.50;99.90;;;;;;5005058;28;20116;-66
2022/07/17 09:03:04;;;;;;;0.22;0.20;;;18.30;99.90;;;;;;5005195;28;20131;-68
2022/07/17 09:05:34;;;;;;;0.70;0.40;;;18.30;99.90;;;;;;5004780;28;20033;-65
2022/07/17 09:08:02;;;;;;;0.35;0.35;;;18.40;99.90;;;;;;5007018;28;20089;-65
2022/07/17 09:10:45;;;;;;;0.17;0.10;;;18.40;99.90;;;;;;5004414;28;20619;-68
2022/07/17 09:13:17;;;;;;;0.75;0.30;;;18.40;99.90;;;;;;5006784;28;20072;-68
2022/07/17 09:15:46;;;;;;;0.75;0.40;;;18.50;99.90;;;;;;5006715;28;20062;-64
2022/07/17 09:18:14;;;;;;;0.30;0.30;;;18.60;99.90;;;;;;5006395;28;20448;-67
2022/07/17 09:20:53;;;;;;;0.25;0.22;;;18.50;99.90;;;;;;5006987;28;20084;-66
2022/07/17 09:23:23;;;;;;;6.88;0.75;;;18.50;99.90;;;;;;5007932;28;20181;-66
2022/07/17 09:25:55;;;;;;;1.42;0.40;;;18.60;99.90;;;;;;5002093;28;20042;-65
2022/07/17 09:28:23;;;;;;;0.32;0.32;;;18.40;99.90;;;;;;5007278;28;20046;-65
2022/07/17 09:30:53;;;;;;;0.57;0.30;;;18.50;99.90;;;;;;5005355;28;20435;-68
2022/07/17 09:33:23;;;;;;;0.75;0.22;;;18.50;99.90;;;;;;5005980;28;20048;-68
2022/07/17 09:35:52;;;;;;;0.80;0.57;;;18.60;99.90;;;;;;5005928;28;20042;-65
2022/07/17 09:38:35;;;;;;;0.20;0.10;;;18.80;99.90;;;;;;5003014;28;20392;-67
2022/07/17 09:41:15;;;;;;;0.95;0.30;;;18.80;99.90;;;;;;5008439;28;20468;-66
2022/07/17 09:43:45;;;;;;;1.40;1.10;;;18.90;99.90;;;;;;5007480;28;20482;-66
2022/07/17 09:46:14;;;;;;;;;;;18.80;99.90;;;;;;5005031;28;20042;-70
2022/07/17 09:48:47;;;;;;;1.52;0.50;;;18.70;99.90;;;;;;5005770;28;19929;-65
2022/07/17 09:51:20;;;;;;;0.73;0.50;;;18.70;99.90;;;;;;5000252;28;20136;-66
2022/07/17 09:53:49;;;;;;;0.30;0.10;;;18.60;99.90;;;;;;5005150;28;20042;-69
2022/07/17 09:56:19;;;;;;;0.60;0.57;;;18.80;99.90;;;;;;5005195;28;20044;-65
2022/07/17 09:58:54;;;;;;;0.20;0.15;;;18.90;99.90;;;;;;5005693;28;20070;-65
2022/07/17 10:01:21;;;;;;;0.73;0.40;;;19.00;99.90;;;;;;5004510;28;20042;-66
2022/07/17 10:03:53;;;;;;;0.35;0.20;;;19.20;99.90;;;;;;5002016;28;20065;-69
2022/07/17 10:06:22;;;;;;;0.20;0.20;;;19.10;99.90;;;;;;4999018;28;20092;-69
2022/07/17 10:08:51;;;;;;;0.40;0.22;;;18.90;99.90;;;;;;5002025;28;20081;-72
2022/07/17 10:11:26;;;;;;;0.10;0.10;;;18.90;99.90;;;;;;5009186;28;20046;-64
2022/07/17 10:13:56;;;;;;;0.30;0.20;;;19.20;99.90;;;;;;5008145;28;20753;-69
2022/07/17 10:16:25;;;;;;;1.67;0.28;;;19.00;99.90;;;;;;5009421;28;20065;-66
2022/07/17 10:18:55;;;;;;;0.20;0.10;;;19.10;99.90;;;;;;5010787;28;20034;-64
2022/07/17 10:21:23;;;;;;;0.43;0.40;;;19.20;99.90;;;;;;5011079;28;20121;-65
2022/07/17 10:23:54;;;;;;;0.30;0.10;;;19.40;99.90;;;;;;5010812;28;20542;-69
2022/07/17 10:26:36;;;;;;;0.20;0.10;;;19.40;99.90;;;;;;5010955;28;20133;-66
2022/07/17 10:29:28;;;;;;;0.55;0.32;;;19.50;99.90;;;;;;5007748;28;20049;-65
2022/07/17 10:31:55;;;;;;;1.48;0.20;;;19.60;99.90;;;;;;5007026;28;21297;-65
2022/07/17 10:34:44;;;;;;;1.65;0.55;;;19.50;99.90;;;;;;5009905;28;20030;-65
2022/07/17 10:37:36;;;;;;;1.67;0.22;;;19.50;99.90;;;;;;5005958;28;20046;-66
2022/07/17 10:40:23;;;;;;;1.73;0.20;;;19.70;99.90;;;;;;5003254;28;20077;-65
2022/07/17 10:42:53;;;;;;;0.82;0.40;;;19.80;99.90;;;;;;5008918;28;20423;-67
2022/07/17 10:45:24;;;;;;;0.65;0.30;;;19.80;99.90;;;;;;5006643;28;20128;-67
2022/07/17 10:47:50;;;;;;;0.43;0.40;;;19.70;99.90;;;;;;5004990;28;20073;-66
2022/07/17 10:50:24;;;;;;;0.77;0.45;;;19.70;99.90;;;;;;5011375;28;20069;-66
2022/07/17 10:53:01;;;;;;;1.10;0.60;;;19.70;99.90;;;;;;5010401;28;20444;-65
2022/07/17 10:55:29;;;;;;;3.40;0.57;;;19.70;99.90;;;;;;5010444;28;20045;-65
2022/07/17 10:57:57;;;;;;;1.23;0.57;;;19.50;99.90;;;;;;5009336;28;20081;-65
2022/07/17 11:00:24;;;;;;;2.42;0.28;;;19.70;99.90;;;;;;5007272;28;20049;-66
2022/07/17 11:02:52;;;;;;;1.08;0.70;;;19.80;99.90;;;;;;5007196;28;20049;-65
2022/07/17 11:05:20;;;;;;;1.77;0.40;;;20.10;99.90;;;;;;5010778;28;20065;-69
2022/07/17 11:07:49;;;;;;;1.88;0.50;;;19.90;99.90;;;;;;5010161;28;20046;-67
2022/07/17 11:10:17;;;;;;;1.65;0.88;;;19.80;99.90;;;;;;5010445;28;20380;-65
2022/07/17 11:12:44;;;;;;;4.00;0.88;;;20.00;99.90;;;;;;5009999;28;20069;-68
2022/07/17 11:15:11;;;;;;;0.55;0.47;;;20.30;99.90;;;;;;5009029;28;20056;-66
2022/07/17 11:17:43;;;;;;;0.55;0.43;;;20.20;99.90;;;;;;5006927;28;20467;-65
2022/07/17 11:20:10;;;;;;;1.98;1.10;;;20.00;99.90;;;;;;5011225;28;20048;-66
2022/07/17 11:22:37;;;;;;;1.65;0.50;;;20.10;99.90;;;;;;5009236;28;20041;-66
2022/07/17 11:25:06;;;;;;;0.93;0.70;;;20.30;99.90;;;;;;5009565;28;20050;-66
2022/07/17 11:27:33;;;;;;;2.38;0.88;;;20.30;99.90;;;;;;5002120;28;20076;-65
2022/07/17 11:30:01;;;;;;;1.23;0.40;;;20.20;99.90;;;;;;5002098;28;20101;-65
2022/07/17 11:32:33;;;;;;;1.20;0.82;;;20.20;99.90;;;;;;5002956;28;20111;-65
2022/07/17 11:35:00;;;;;;;1.15;1.00;;;20.00;99.90;;;;;;5010355;28;20037;-66
2022/07/17 11:37:50;;;;;;;3.88;0.65;;;20.00;99.90;;;;;;5008091;28;20436;-69
2022/07/17 11:40:17;;;;;;;1.27;0.50;;;19.70;99.90;;;;;;5006805;28;20064;-66
2022/07/17 11:42:44;;;;;;;1.33;0.70;;;19.60;99.90;;;;;;5006276;28;20073;-68
2022/07/17 11:45:11;;;;;;;1.42;1.25;;;19.50;99.90;;;;;;5006779;28;20042;-65
2022/07/17 11:47:38;;;;;;;1.05;0.70;;;19.40;99.90;;;;;;5007228;28;20560;-65
2022/07/17 11:50:13;;;;;;;0.93;0.55;;;19.40;99.90;;;;;;5008172;28;20148;-65
2022/07/17 11:52:48;;;;;;;3.22;1.45;;;19.50;99.90;;;;;;5007663;28;20975;-65
2022/07/17 11:55:16;;;;;;;1.50;0.60;;;19.50;99.90;;;;;;5007177;28;20376;-65
2022/07/17 11:57:46;;;;;;;0.68;0.63;;;19.70;99.90;;;;;;5009721;28;20111;-65
2022/07/17 12:00:15;;;;;;;0.90;0.60;;;19.70;99.90;;;;;;5000682;28;20069;-67
2022/07/17 12:02:43;;;;;;;0.68;0.50;;;19.80;99.90;;;;;;5007341;28;20942;-65
2022/07/17 12:05:11;;;;;;;1.95;0.70;;;19.90;99.90;;;;;;5005100;28;20109;-73
2022/07/17 12:07:40;;;;;;;1.50;0.38;;;20.00;99.90;;;;;;5004507;28;20037;-65
2022/07/17 12:10:13;;;;;;;2.30;0.85;;;20.20;99.90;;;;;;5006455;28;20127;-69
2022/07/17 12:12:56;;;;;;;0.88;0.43;;;20.50;99.90;;;;;;5005480;28;20064;-65
2022/07/17 12:15:42;;;;;;;0.47;0.38;;;20.80;99.90;;;;;;5007889;28;20387;-68
2022/07/17 12:18:23;;;;;;;0.70;0.30;;;21.00;99.90;;;;;;5004717;28;20364;-69
2022/07/17 12:20:52;;;;;;;1.05;0.35;;;21.30;99.90;;;;;;5007428;28;20072;-65
2022/07/17 12:23:27;;;;;;;1.10;0.50;;;21.20;99.90;;;;;;4999711;28;20180;-68
2022/07/17 12:26:07;;;;;;;1.17;0.50;;;21.10;99.90;;;;;;5009850;28;20061;-66
2022/07/17 12:28:34;;;;;;;0.50;0.50;;;21.10;99.90;;;;;;5006186;28;20066;-65
2022/07/17 12:31:02;;;;;;;0.70;0.30;;;21.10;99.90;;;;;;5007517;28;20092;-67
2022/07/17 12:33:29;;;;;;;0.82;0.68;;;21.10;99.90;;;;;;5001070;28;20038;-69
2022/07/17 12:35:56;;;;;;;0.60;0.60;;;21.10;99.90;;;;;;5008755;28;20140;-65
2022/07/17 12:38:23;;;;;;;1.58;0.50;;;21.30;98.10;;;;;;5005730;28;20045;-66
2022/07/17 12:40:50;;;;;;;0.85;0.40;;;21.50;98.30;;;;;;5008578;28;20054;-67
2022/07/17 12:43:18;;;;;;;3.33;0.30;;;21.60;97.90;;;;;;5009620;28;20084;-65
2022/07/17 12:45:45;;;;;;;0.88;0.32;;;21.70;98.70;;;;;;5007227;28;20061;-66
2022/07/17 12:48:12;;;;;;;0.82;0.73;;;21.90;98.40;;;;;;5006087;28;20516;-65
2022/07/17 12:50:39;;;;;;;1.00;0.93;;;21.90;98.50;;;;;;5009397;28;20120;-69
2022/07/17 12:53:06;;;;;;;1.58;0.40;;;22.00;98.90;;;;;;5006339;28;20045;-65
2022/07/17 12:55:34;;;;;;;3.75;0.60;;;22.10;98.70;;;;;;5001456;28;20389;-65